Time;durP1;ratioP1;P1;durP2;ratioP2;P2;SDS_P1;SDS_P2;PMS_P1;PMS_P2;Temp;Humidity;BMP_temperature;BMP_pressure;BME280_temperature;BME280_humidity;BME280_pressure;Samples;Min_cycle;Max_cycle;Signal;HPM_P1;HPM_P2
2023/09/13 00:02:44;;;;;;;4.13;2.42;;;;;;;;;;10451705;27;20078;-63
2023/09/13 00:07:43;;;;;;;5.03;2.72;;;;;;;;;;10452718;27;20513;-63
2023/09/13 00:12:41;;;;;;;3.63;2.30;;;;;;;;;;10455966;27;20071;-63
2023/09/13 00:17:39;;;;;;;3.78;2.90;;;;;;;;;;10456176;27;20067;-64
2023/09/13 00:22:39;;;;;;;3.05;2.25;;;;;;;;;;10452855;27;20070;-63
2023/09/13 00:27:37;;;;;;;5.70;2.80;;;;;;;;;;10454796;27;20127;-63
2023/09/13 00:32:36;;;;;;;2.85;2.53;;;;;;;;;;10462217;27;20065;-64
2023/09/13 00:37:34;;;;;;;2.40;2.08;;;;;;;;;;10442480;27;20474;-63
2023/09/13 00:42:35;;;;;;;2.40;2.20;;;;;;;;;;10461882;27;20538;-64
2023/09/13 00:47:34;;;;;;;5.07;2.50;;;;;;;;;;10455150;27;20470;-64
2023/09/13 00:52:32;;;;;;;4.10;2.42;;;;;;;;;;10460803;27;20062;-64
2023/09/13 00:57:31;;;;;;;2.40;2.20;;;;;;;;;;10445680;27;20093;-64
2023/09/13 01:02:31;;;;;;;5.10;2.50;;;;;;;;;;10437312;27;20074;-64
2023/09/13 01:07:30;;;;;;;2.53;2.00;;;;;;;;;;10451675;27;20070;-64
2023/09/13 01:12:28;;;;;;;3.35;2.25;;;;;;;;;;10454763;27;20061;-63
2023/09/13 01:17:34;;;;;;;5.03;2.10;;;;;;;;;;10458776;27;20078;-64
2023/09/13 01:22:53;;;;;;;4.78;2.60;;;;;;;;;;10462708;27;20070;-65
2023/09/13 01:27:56;;;;;;;3.22;1.80;;;;;;;;;;10456545;27;20504;-65
2023/09/13 01:32:57;;;;;;;3.95;2.60;;;;;;;;;;10461143;27;20066;-64
2023/09/13 01:37:55;;;;;;;4.97;2.42;;;;;;;;;;10443162;27;20078;-63
2023/09/13 01:42:56;;;;;;;3.65;2.70;;;;;;;;;;10458562;27;20104;-63
2023/09/13 01:47:56;;;;;;;5.53;2.58;;;;;;;;;;10460562;27;20082;-64
2023/09/13 01:52:54;;;;;;;4.40;1.85;;;;;;;;;;10456591;27;20065;-63
2023/09/13 01:57:52;;;;;;;7.97;3.08;;;;;;;;;;10457932;27;20074;-63
2023/09/13 02:02:51;;;;;;;2.80;2.35;;;;;;;;;;10440879;27;20074;-64
2023/09/13 02:07:50;;;;;;;3.80;2.97;;;;;;;;;;10456177;27;20089;-63
2023/09/13 02:12:48;;;;;;;6.57;2.25;;;;;;;;;;10440019;27;20074;-64
2023/09/13 02:17:50;;;;;;;4.25;2.25;;;;;;;;;;10446884;27;20054;-63
2023/09/13 02:22:48;;;;;;;4.07;2.42;;;;;;;;;;10440918;27;20079;-63
2023/09/13 02:27:48;;;;;;;5.95;2.88;;;;;;;;;;10445439;27;20090;-64
2023/09/13 02:32:46;;;;;;;2.58;2.38;;;;;;;;;;10442554;27;20086;-63
2023/09/13 02:37:45;;;;;;;8.85;2.53;;;;;;;;;;10454331;27;20129;-64
2023/09/13 02:42:44;;;;;;;3.30;2.13;;;;;;;;;;10435201;27;20070;-64
2023/09/13 02:47:45;;;;;;;6.20;2.45;;;;;;;;;;10458287;27;20073;-64
2023/09/13 02:52:43;;;;;;;3.08;2.72;;;;;;;;;;10450990;27;20584;-63
2023/09/13 02:57:42;;;;;;;5.13;3.50;;;;;;;;;;10433667;27;20070;-63
2023/09/13 03:02:40;;;;;;;4.15;3.08;;;;;;;;;;10432316;27;20082;-64
2023/09/13 03:07:40;;;;;;;2.88;2.58;;;;;;;;;;10433089;27;20077;-64
2023/09/13 03:12:38;;;;;;;7.82;3.08;;;;;;;;;;10444445;27;20528;-63
2023/09/13 03:17:38;;;;;;;3.25;2.58;;;;;;;;;;10446221;27;20460;-64
2023/09/13 03:22:36;;;;;;;3.00;2.70;;;;;;;;;;10454870;27;20066;-62
2023/09/13 03:27:36;;;;;;;7.70;3.25;;;;;;;;;;10456351;27;20461;-63
2023/09/13 03:32:35;;;;;;;8.45;2.70;;;;;;;;;;10428016;27;20084;-62
2023/09/13 03:37:35;;;;;;;4.88;2.90;;;;;;;;;;10462807;27;20144;-63
2023/09/13 03:42:34;;;;;;;3.00;2.38;;;;;;;;;;10456446;27;20097;-63
2023/09/13 03:47:34;;;;;;;3.47;3.15;;;;;;;;;;10434015;27;20082;-63
2023/09/13 03:52:32;;;;;;;5.05;3.05;;;;;;;;;;10441432;27;20043;-63
2023/09/13 03:57:31;;;;;;;2.88;2.60;;;;;;;;;;10433248;27;20066;-64
2023/09/13 04:02:29;;;;;;;8.02;2.83;;;;;;;;;;10445370;27;20066;-65
2023/09/13 04:07:29;;;;;;;10.27;3.60;;;;;;;;;;10439374;27;20468;-65
2023/09/13 04:12:27;;;;;;;7.63;3.50;;;;;;;;;;10437986;27;20073;-65
2023/09/13 04:17:25;;;;;;;7.15;3.10;;;;;;;;;;10455346;27;20062;-65
2023/09/13 04:22:24;;;;;;;6.78;3.03;;;;;;;;;;10444966;27;20507;-65
2023/09/13 04:27:24;;;;;;;7.45;3.60;;;;;;;;;;10458394;27;20078;-65
2023/09/13 04:32:23;;;;;;;11.80;3.65;;;;;;;;;;10455418;27;20089;-65
2023/09/13 04:37:24;;;;;;;5.53;2.95;;;;;;;;;;10441228;27;20065;-65
2023/09/13 04:42:24;;;;;;;8.35;2.83;;;;;;;;;;10460114;27;20507;-65
2023/09/13 04:47:22;;;;;;;3.25;2.95;;;;;;;;;;10442106;27;20069;-65
2023/09/13 04:52:20;;;;;;;4.15;2.72;;;;;;;;;;10449790;27;20066;-66
2023/09/13 04:57:19;;;;;;;2.70;2.47;;;;;;;;;;10459248;27;20065;-63
2023/09/13 05:02:18;;;;;;;4.55;2.35;;;;;;;;;;10455448;27;20070;-65
2023/09/13 05:07:18;;;;;;;2.67;2.45;;;;;;;;;;10438267;27;20078;-65
2023/09/13 05:12:16;;;;;;;4.03;2.35;;;;;;;;;;10461301;27;20548;-64
2023/09/13 05:17:14;;;;;;;7.88;3.35;;;;;;;;;;10454859;27;20073;-64
2023/09/13 05:22:14;;;;;;;6.28;2.63;;;;;;;;;;10457913;27;20078;-63
2023/09/13 05:27:12;;;;;;;7.32;2.58;;;;;;;;;;10459702;27;20078;-63
2023/09/13 05:32:10;;;;;;;3.33;2.75;;;;;;;;;;10463089;27;20085;-65
2023/09/13 05:37:09;;;;;;;5.15;2.28;;;;;;;;;;10460988;27;20077;-65
2023/09/13 05:42:08;;;;;;;4.38;2.80;;;;;;;;;;10460157;27;20081;-63
2023/09/13 05:47:07;;;;;;;3.45;2.53;;;;;;;;;;10455949;27;20502;-63
2023/09/13 05:52:05;;;;;;;4.50;2.90;;;;;;;;;;10453542;27;20082;-64
2023/09/13 05:57:04;;;;;;;5.75;2.70;;;;;;;;;;10456279;27;20063;-63
2023/09/13 06:02:03;;;;;;;5.75;2.75;;;;;;;;;;10455021;27;20066;-63
2023/09/13 06:07:09;;;;;;;2.78;2.22;;;;;;;;;;10450121;27;20069;-63
2023/09/13 06:12:07;;;;;;;3.22;2.50;;;;;;;;;;10455249;27;20073;-64
2023/09/13 06:17:07;;;;;;;3.40;2.47;;;;;;;;;;10458398;27;20063;-63
2023/09/13 06:22:05;;;;;;;12.23;4.82;;;;;;;;;;10459110;27;20079;-63
2023/09/13 06:27:04;;;;;;;4.65;3.00;;;;;;;;;;10465485;27;20140;-64
2023/09/13 06:32:03;;;;;;;4.53;2.20;;;;;;;;;;10461276;27;20101;-63
2023/09/13 06:37:05;;;;;;;5.10;3.50;;;;;;;;;;10458144;27;20071;-63
2023/09/13 06:42:04;;;;;;;3.42;2.75;;;;;;;;;;10453025;27;20070;-62
2023/09/13 06:47:22;;;;;;;3.60;2.45;;;;;;;;;;10455151;27;20074;-62
2023/09/13 06:52:23;;;;;;;7.63;2.55;;;;;;;;;;10457090;27;20074;-62
2023/09/13 06:57:25;;;;;;;3.30;2.67;;;;;;;;;;10455503;27;20073;-63
2023/09/13 07:02:27;;;;;;;5.85;2.47;;;;;;;;;;10452436;27;20565;-63
2023/09/13 07:07:34;;;;;;;7.00;2.47;;;;;;;;;;10452697;27;20066;-64
2023/09/13 07:12:33;;;;;;;5.10;3.00;;;;;;;;;;10450513;27;20656;-64
2023/09/13 07:17:31;;;;;;;6.68;2.78;;;;;;;;;;10455643;27;20069;-64
2023/09/13 07:22:30;;;;;;;10.70;4.75;;;;;;;;;;10454908;27;20086;-64
2023/09/13 07:27:29;;;;;;;9.98;3.08;;;;;;;;;;10451496;27;20534;-64
2023/09/13 07:32:27;;;;;;;5.53;2.83;;;;;;;;;;10451551;27;20074;-64
2023/09/13 07:37:27;;;;;;;6.57;2.47;;;;;;;;;;10461510;27;20065;-63
2023/09/13 07:42:25;;;;;;;3.00;2.42;;;;;;;;;;10471986;27;20081;-63
2023/09/13 07:47:25;;;;;;;12.98;10.45;;;;;;;;;;10474116;27;20058;-65
2023/09/13 07:52:24;;;;;;;8.50;6.47;;;;;;;;;;10463816;27;20129;-65
2023/09/13 07:57:24;;;;;;;9.20;2.80;;;;;;;;;;10465836;27;20503;-65
2023/09/13 08:02:22;;;;;;;5.65;3.17;;;;;;;;;;10470626;27;20497;-66
2023/09/13 08:07:22;;;;;;;15.85;4.30;;;;;;;;;;10469773;27;20526;-65
2023/09/13 08:12:20;;;;;;;13.35;3.80;;;;;;;;;;10469666;27;20066;-64
2023/09/13 08:17:18;;;;;;;16.15;3.80;;;;;;;;;;10472751;27;20062;-66
2023/09/13 08:22:17;;;;;;;9.40;3.70;;;;;;;;;;10469109;27;20526;-64
2023/09/13 08:27:35;;;;;;;8.13;3.50;;;;;;;;;;10473215;27;20082;-63
2023/09/13 08:32:34;;;;;;;9.48;4.03;;;;;;;;;;10474305;27;20089;-64
2023/09/13 08:37:32;;;;;;;13.85;3.90;;;;;;;;;;10465465;27;20071;-64
2023/09/13 08:42:30;;;;;;;13.88;4.03;;;;;;;;;;10465836;27;20077;-64
2023/09/13 08:47:31;;;;;;;8.30;3.50;;;;;;;;;;10471120;27;20120;-64
2023/09/13 08:52:51;;;;;;;8.57;3.40;;;;;;;;;;10465959;27;20070;-64
2023/09/13 08:57:49;;;;;;;9.68;4.35;;;;;;;;;;10461748;27;20070;-64
2023/09/13 09:02:49;;;;;;;10.30;3.70;;;;;;;;;;10457074;27;20483;-64
2023/09/13 09:07:48;;;;;;;10.02;3.90;;;;;;;;;;10459755;27;20455;-65
2023/09/13 09:12:51;;;;;;;11.23;3.88;;;;;;;;;;10459478;27;20654;-66
2023/09/13 09:17:52;;;;;;;7.57;4.03;;;;;;;;;;10451985;27;20082;-63
2023/09/13 09:22:50;;;;;;;11.23;4.57;;;;;;;;;;10461919;27;20495;-64
2023/09/13 09:27:48;;;;;;;10.15;4.38;;;;;;;;;;10459991;27;20516;-64
2023/09/13 09:32:46;;;;;;;10.50;4.28;;;;;;;;;;10444993;27;20472;-63
2023/09/13 09:37:46;;;;;;;8.45;4.13;;;;;;;;;;10457103;27;20067;-61
2023/09/13 09:42:44;;;;;;;6.95;3.55;;;;;;;;;;10459059;27;20062;-65
2023/09/13 09:47:43;;;;;;;11.57;3.78;;;;;;;;;;10449429;27;20074;-64
2023/09/13 09:52:41;;;;;;;9.30;3.70;;;;;;;;;;10449827;27;20055;-64
2023/09/13 09:57:45;;;;;;;11.98;4.20;;;;;;;;;;10449458;27;20070;-64
2023/09/13 10:02:43;;;;;;;;;;;;;;;;;;10447760;27;20486;-65
2023/09/13 10:07:49;;;;;;;7.78;4.30;;;;;;;;;;10453190;27;19947;-64
2023/09/13 10:12:50;;;;;;;10.05;3.78;;;;;;;;;;10455728;27;20085;-65
2023/09/13 10:17:49;;;;;;;9.15;4.10;;;;;;;;;;10452801;27;20083;-63
2023/09/13 10:22:49;;;;;;;10.65;3.88;;;;;;;;;;10451694;27;20082;-64
2023/09/13 10:27:50;;;;;;;8.68;4.15;;;;;;;;;;10457590;27;20905;-64
2023/09/13 10:32:51;;;;;;;10.43;4.05;;;;;;;;;;10454394;27;20468;-65
2023/09/13 10:37:52;;;;;;;10.57;4.57;;;;;;;;;;10454921;27;20084;-64
2023/09/13 10:42:53;;;;;;;11.02;3.75;;;;;;;;;;10457373;27;20067;-64
2023/09/13 10:47:52;;;;;;;10.40;4.30;;;;;;;;;;10455232;27;20082;-65
2023/09/13 10:52:50;;;;;;;13.73;4.07;;;;;;;;;;10456079;27;20078;-65
2023/09/13 10:57:50;;;;;;;12.32;3.85;;;;;;;;;;10457550;27;20087;-65
2023/09/13 11:02:49;;;;;;;7.93;4.55;;;;;;;;;;10456528;27;20074;-64
2023/09/13 11:07:50;;;;;;;12.25;4.47;;;;;;;;;;10452675;27;20062;-65
2023/09/13 11:12:50;;;;;;;12.80;4.00;;;;;;;;;;10454873;27;20063;-65
2023/09/13 11:17:54;;;;;;;7.20;3.85;;;;;;;;;;10453423;27;20074;-64
2023/09/13 11:23:03;;;;;;;11.07;4.70;;;;;;;;;;10436418;27;20074;-65
2023/09/13 11:28:04;;;;;;;14.90;4.90;;;;;;;;;;10453880;27;20090;-65
2023/09/13 11:33:04;;;;;;;12.85;4.15;;;;;;;;;;10457079;27;20083;-64
2023/09/13 11:38:03;;;;;;;7.63;3.92;;;;;;;;;;10454121;27;20077;-65
2023/09/13 11:43:02;;;;;;;12.55;4.25;;;;;;;;;;10434618;27;20078;-64
2023/09/13 11:48:04;;;;;;;18.30;4.43;;;;;;;;;;10451714;27;20097;-66
2023/09/13 11:53:13;;;;;;;9.13;4.05;;;;;;;;;;10450591;27;20062;-65
2023/09/13 11:58:15;;;;;;;7.03;3.60;;;;;;;;;;10455458;27;20082;-65
2023/09/13 12:03:31;;;;;;;10.50;4.82;;;;;;;;;;10453420;27;20066;-65
2023/09/13 12:08:49;;;;;;;8.95;4.05;;;;;;;;;;10453970;27;20486;-64
2023/09/13 12:13:49;;;;;;;13.18;4.03;;;;;;;;;;10455472;27;20074;-64
2023/09/13 12:19:10;;;;;;;10.50;4.25;;;;;;;;;;10456345;27;20081;-64
2023/09/13 12:24:12;;;;;;;11.95;4.40;;;;;;;;;;10456729;27;20509;-64
2023/09/13 12:29:10;;;;;;;17.83;5.00;;;;;;;;;;10461617;27;20083;-65
2023/09/13 12:34:10;;;;;;;17.17;4.88;;;;;;;;;;10464919;27;20055;-64
2023/09/13 12:39:13;;;;;;;17.30;4.65;;;;;;;;;;10459574;27;20070;-65
2023/09/13 12:44:14;;;;;;;15.13;4.53;;;;;;;;;;10457852;27;20085;-65
2023/09/13 12:49:14;;;;;;;13.50;4.10;;;;;;;;;;10458163;27;20079;-66
2023/09/13 12:54:13;;;;;;;10.75;4.25;;;;;;;;;;10458546;27;20074;-66
2023/09/13 12:59:12;;;;;;;9.68;4.15;;;;;;;;;;10457084;27;20063;-65
2023/09/13 13:04:11;;;;;;;8.75;3.88;;;;;;;;;;10454801;27;20063;-65
2023/09/13 13:09:12;;;;;;;8.25;4.55;;;;;;;;;;10454688;27;20499;-65
2023/09/13 13:14:12;;;;;;;10.55;4.93;;;;;;;;;;10455649;27;20077;-63
2023/09/13 13:19:10;;;;;;;15.48;4.82;;;;;;;;;;10456481;27;20510;-64
2023/09/13 13:24:13;;;;;;;10.85;4.05;;;;;;;;;;10457993;27;20085;-64
2023/09/13 13:29:12;;;;;;;14.23;4.53;;;;;;;;;;10458932;27;20172;-63
2023/09/13 13:34:10;;;;;;;11.85;3.92;;;;;;;;;;10457814;27;20075;-64
2023/09/13 13:39:14;;;;;;;16.50;4.63;;;;;;;;;;10454265;27;20329;-64
2023/09/13 13:44:17;;;;;;;10.80;4.32;;;;;;;;;;10453894;27;20077;-67
2023/09/13 13:49:17;;;;;;;14.85;4.32;;;;;;;;;;10459589;27;20534;-65
2023/09/13 13:54:17;;;;;;;11.07;4.22;;;;;;;;;;10461616;27;20447;-66
2023/09/13 13:59:17;;;;;;;9.20;3.92;;;;;;;;;;10465648;27;20082;-65
2023/09/13 14:04:16;;;;;;;14.30;4.82;;;;;;;;;;10462636;27;20068;-63
2023/09/13 14:09:15;;;;;;;14.85;4.75;;;;;;;;;;10459587;27;20074;-64
2023/09/13 14:14:17;;;;;;;15.63;6.88;;;;;;;;;;10456702;27;20487;-63
2023/09/13 14:19:17;;;;;;;12.77;7.07;;;;;;;;;;10464292;27;20069;-66
2023/09/13 14:24:15;;;;;;;13.98;7.07;;;;;;;;;;10451974;27;20480;-64
2023/09/13 14:29:14;;;;;;;20.13;5.47;;;;;;;;;;10455469;27;20092;-63
2023/09/13 14:34:13;;;;;;;15.00;5.40;;;;;;;;;;10458367;27;20070;-63
2023/09/13 14:39:13;;;;;;;22.95;5.82;;;;;;;;;;10457778;27;20062;-65
2023/09/13 14:44:11;;;;;;;12.63;4.18;;;;;;;;;;10464430;27;20066;-65
2023/09/13 14:49:09;;;;;;;9.40;4.20;;;;;;;;;;10461621;27;20070;-64
2023/09/13 14:54:07;;;;;;;12.45;3.95;;;;;;;;;;10460804;27;20549;-66
2023/09/13 14:59:07;;;;;;;15.15;4.72;;;;;;;;;;10456942;27;20062;-66
2023/09/13 15:04:09;;;;;;;7.97;4.28;;;;;;;;;;10455956;27;20074;-67
2023/09/13 15:09:08;;;;;;;14.95;4.57;;;;;;;;;;10457917;27;20070;-66
2023/09/13 15:14:07;;;;;;;10.93;5.03;;;;;;;;;;10453686;27;20089;-67
2023/09/13 15:19:06;;;;;;;16.67;6.15;;;;;;;;;;10454185;27;20067;-66
2023/09/13 15:24:04;;;;;;;10.27;5.57;;;;;;;;;;10451036;27;20066;-65
2023/09/13 15:29:03;;;;;;;17.42;6.43;;;;;;;;;;10458014;27;20094;-65
2023/09/13 15:34:08;;;;;;;20.88;8.05;;;;;;;;;;10453973;27;20082;-64
2023/09/13 15:39:06;;;;;;;21.10;9.43;;;;;;;;;;10452727;27;20077;-63
2023/09/13 15:44:05;;;;;;;16.88;10.45;;;;;;;;;;10448538;27;20070;-65
2023/09/13 15:49:05;;;;;;;18.00;5.20;;;;;;;;;;10454883;27;20067;-65
2023/09/13 15:54:03;;;;;;;10.90;4.65;;;;;;;;;;10453542;27;20082;-65
2023/09/13 15:59:01;;;;;;;15.75;5.57;;;;;;;;;;10444065;27;20489;-65
2023/09/13 16:04:01;;;;;;;17.05;5.28;;;;;;;;;;10464410;27;20066;-65
2023/09/13 16:09:00;;;;;;;16.45;4.63;;;;;;;;;;10461532;27;20067;-64
2023/09/13 16:13:59;;;;;;;16.10;5.47;;;;;;;;;;10460438;27;20082;-64
2023/09/13 16:18:57;;;;;;;18.73;5.47;;;;;;;;;;10464407;27;20154;-64
2023/09/13 16:23:55;;;;;;;18.05;4.97;;;;;;;;;;10459622;27;20067;-65
2023/09/13 16:28:55;;;;;;;18.55;4.78;;;;;;;;;;10465524;27;20511;-65
2023/09/13 16:33:53;;;;;;;12.63;5.22;;;;;;;;;;10458467;27;20186;-65
2023/09/13 16:38:53;;;;;;;12.75;4.30;;;;;;;;;;10461476;27;20070;-65
2023/09/13 16:43:51;;;;;;;23.98;5.65;;;;;;;;;;10460590;27;20063;-65
2023/09/13 16:48:51;;;;;;;16.73;5.07;;;;;;;;;;10444597;27;20078;-64
2023/09/13 16:53:49;;;;;;;12.63;4.40;;;;;;;;;;10459477;27;20066;-64
2023/09/13 16:58:48;;;;;;;11.23;4.18;;;;;;;;;;10458922;27;20082;-64
2023/09/13 17:03:48;;;;;;;10.27;4.90;;;;;;;;;;10458598;27;20073;-65
2023/09/13 17:08:48;;;;;;;10.05;4.32;;;;;;;;;;10447207;27;20070;-65
2023/09/13 17:13:48;;;;;;;18.20;5.10;;;;;;;;;;10440176;27;20070;-63
2023/09/13 17:18:48;;;;;;;23.05;4.85;;;;;;;;;;10459965;27;20435;-64
2023/09/13 17:23:48;;;;;;;16.40;4.70;;;;;;;;;;10449811;27;20070;-65
2023/09/13 17:28:48;;;;;;;12.77;5.13;;;;;;;;;;10456284;27;20079;-65
2023/09/13 17:33:46;;;;;;;19.00;6.43;;;;;;;;;;10456188;27;20461;-64
2023/09/13 17:38:44;;;;;;;14.55;6.07;;;;;;;;;;10457050;27;20070;-64
2023/09/13 17:43:44;;;;;;;12.02;4.82;;;;;;;;;;10454183;27;20074;-65
2023/09/13 17:48:42;;;;;;;14.38;4.60;;;;;;;;;;10457208;27;20511;-64
2023/09/13 17:53:41;;;;;;;15.75;4.90;;;;;;;;;;10453805;27;20066;-65
2023/09/13 17:58:39;;;;;;;11.45;5.50;;;;;;;;;;10450781;27;20062;-65
2023/09/13 18:03:40;;;;;;;14.85;4.53;;;;;;;;;;10452397;27;20471;-65
2023/09/13 18:08:38;;;;;;;11.98;5.07;;;;;;;;;;10452284;27;20078;-64
2023/09/13 18:13:36;;;;;;;20.67;6.97;;;;;;;;;;10454025;27;20067;-65
2023/09/13 18:18:34;;;;;;;14.73;5.90;;;;;;;;;;10455999;27;20066;-66
2023/09/13 18:23:34;;;;;;;9.65;4.57;;;;;;;;;;10456075;27;20084;-66
2023/09/13 18:28:33;;;;;;;15.20;4.80;;;;;;;;;;10451923;27;20123;-66
2023/09/13 18:33:31;;;;;;;14.38;4.63;;;;;;;;;;10452033;27;20148;-66
2023/09/13 18:38:30;;;;;;;14.50;4.53;;;;;;;;;;10450509;27;20074;-66
2023/09/13 18:43:30;;;;;;;17.60;4.60;;;;;;;;;;10454794;27;20062;-65
2023/09/13 18:48:28;;;;;;;12.55;4.90;;;;;;;;;;10452556;27;20096;-65
2023/09/13 18:53:27;;;;;;;17.70;4.53;;;;;;;;;;10450665;27;20063;-65
2023/09/13 18:58:29;;;;;;;12.77;4.28;;;;;;;;;;10450879;27;20058;-63
2023/09/13 19:03:28;;;;;;;14.02;4.25;;;;;;;;;;10457394;27;20062;-65
2023/09/13 19:08:28;;;;;;;11.65;4.55;;;;;;;;;;10454054;27;20070;-64
2023/09/13 19:13:27;;;;;;;10.00;4.10;;;;;;;;;;10449503;27;20082;-65
2023/09/13 19:18:25;;;;;;;14.85;4.60;;;;;;;;;;10455417;27;20600;-65
2023/09/13 19:23:25;;;;;;;12.25;4.80;;;;;;;;;;10450209;27;20066;-65
2023/09/13 19:28:24;;;;;;;9.38;3.95;;;;;;;;;;10449558;27;20089;-65
2023/09/13 19:33:24;;;;;;;14.25;4.13;;;;;;;;;;10457628;27;20070;-65
2023/09/13 19:38:22;;;;;;;17.17;3.92;;;;;;;;;;10451983;27;20066;-65
2023/09/13 19:43:42;;;;;;;13.60;5.85;;;;;;;;;;10453752;27;20073;-63
2023/09/13 19:48:40;;;;;;;15.75;3.80;;;;;;;;;;10453619;27;20070;-65
2023/09/13 19:53:39;;;;;;;14.20;4.18;;;;;;;;;;10449755;27;20078;-64
2023/09/13 19:58:39;;;;;;;7.30;3.83;;;;;;;;;;10454631;27;20054;-64
2023/09/13 20:03:39;;;;;;;14.35;3.33;;;;;;;;;;10454383;27;20077;-64
2023/09/13 20:08:38;;;;;;;10.60;3.53;;;;;;;;;;10453086;27;20074;-65
2023/09/13 20:13:38;;;;;;;9.60;3.55;;;;;;;;;;10453693;27;20074;-65
2023/09/13 20:18:36;;;;;;;10.27;3.40;;;;;;;;;;10454636;27;20077;-65
2023/09/13 20:23:35;;;;;;;10.27;3.38;;;;;;;;;;10451038;27;20179;-65
2023/09/13 20:28:34;;;;;;;7.32;3.75;;;;;;;;;;10456133;27;20083;-64
2023/09/13 20:33:32;;;;;;;9.48;2.65;;;;;;;;;;10454447;27;20078;-65
2023/09/13 20:38:33;;;;;;;13.73;3.13;;;;;;;;;;10454370;27;20069;-66
2023/09/13 20:43:35;;;;;;;6.85;4.03;;;;;;;;;;10454932;27;20067;-65
2023/09/13 20:48:33;;;;;;;9.95;3.95;;;;;;;;;;10460827;27;20078;-65
2023/09/13 20:53:33;;;;;;;5.72;3.30;;;;;;;;;;10460094;27;20058;-65
2023/09/13 20:58:33;;;;;;;9.10;3.72;;;;;;;;;;10460448;27;20062;-64
2023/09/13 21:03:35;;;;;;;10.45;4.53;;;;;;;;;;10453530;27;20069;-65
2023/09/13 21:08:35;;;;;;;11.10;3.40;;;;;;;;;;10460141;27;20082;-64
2023/09/13 21:13:36;;;;;;;10.65;3.88;;;;;;;;;;10439294;27;20155;-66
2023/09/13 21:18:34;;;;;;;4.70;3.05;;;;;;;;;;10454289;27;20070;-66
2023/09/13 21:23:33;;;;;;;10.55;4.80;;;;;;;;;;10455756;27;20538;-65
2023/09/13 21:28:32;;;;;;;7.93;3.90;;;;;;;;;;10458696;27;20089;-66
2023/09/13 21:33:31;;;;;;;6.00;3.10;;;;;;;;;;10450450;27;20090;-67
2023/09/13 21:38:29;;;;;;;8.45;3.28;;;;;;;;;;10454748;27;20067;-66
2023/09/13 21:43:29;;;;;;;8.45;3.38;;;;;;;;;;10457890;27;20073;-65
2023/09/13 21:48:28;;;;;;;6.70;3.28;;;;;;;;;;10453641;27;20098;-65
2023/09/13 21:53:27;;;;;;;3.03;2.45;;;;;;;;;;10447898;27;20516;-66
2023/09/13 21:58:26;;;;;;;5.93;2.70;;;;;;;;;;10449372;27;20092;-66
2023/09/13 22:03:27;;;;;;;12.75;3.60;;;;;;;;;;10452501;27;20062;-66
2023/09/13 22:08:26;;;;;;;9.13;2.63;;;;;;;;;;10454369;27;20086;-66
2023/09/13 22:13:25;;;;;;;9.82;3.25;;;;;;;;;;10450995;27;20063;-65
2023/09/13 22:18:24;;;;;;;8.70;3.47;;;;;;;;;;10453035;27;20077;-66
2023/09/13 22:23:26;;;;;;;10.07;3.08;;;;;;;;;;10453151;27;20074;-66
2023/09/13 22:28:27;;;;;;;8.63;3.47;;;;;;;;;;10453088;27;20086;-66
2023/09/13 22:33:25;;;;;;;5.53;3.15;;;;;;;;;;10453844;27;20058;-66
2023/09/13 22:38:24;;;;;;;13.75;3.67;;;;;;;;;;10451819;27;20070;-66
2023/09/13 22:43:22;;;;;;;10.20;2.97;;;;;;;;;;10454540;27;20057;-66
2023/09/13 22:48:22;;;;;;;11.77;3.53;;;;;;;;;;10453261;27;20071;-66
2023/09/13 22:53:20;;;;;;;6.30;3.65;;;;;;;;;;10452626;27;20078;-66
2023/09/13 22:58:19;;;;;;;7.35;3.35;;;;;;;;;;10452215;27;20071;-65
2023/09/13 23:03:17;;;;;;;8.40;3.60;;;;;;;;;;10450598;27;20067;-66
2023/09/13 23:08:37;;;;;;;7.03;3.28;;;;;;;;;;10448340;27;20522;-65
2023/09/13 23:13:36;;;;;;;6.70;3.28;;;;;;;;;;10450265;27;20296;-65
2023/09/13 23:18:35;;;;;;;5.82;2.83;;;;;;;;;;10451338;27;20082;-65
2023/09/13 23:23:33;;;;;;;4.53;3.00;;;;;;;;;;10449627;27;20071;-66
2023/09/13 23:28:35;;;;;;;5.53;3.72;;;;;;;;;;10453231;27;20078;-66
2023/09/13 23:33:34;;;;;;;4.20;2.85;;;;;;;;;;10450665;27;20479;-65
2023/09/13 23:38:32;;;;;;;6.55;3.03;;;;;;;;;;10455234;27;20066;-66
2023/09/13 23:43:30;;;;;;;6.65;3.10;;;;;;;;;;10452736;27;20508;-65
2023/09/13 23:48:30;;;;;;;7.88;3.10;;;;;;;;;;10450125;27;20527;-65
2023/09/13 23:53:28;;;;;;;11.80;3.67;;;;;;;;;;10452679;27;20070;-65
2023/09/13 23:58:26;;;;;;;8.43;2.92;;;;;;;;;;10452963;27;20074;-65
